Time;durP1;ratioP1;P1;durP2;ratioP2;P2;SDS_P1;SDS_P2;PMS_P1;PMS_P2;Temp;Humidity;BMP_temperature;BMP_pressure;BME280_temperature;BME280_humidity;BME280_pressure;Samples;Min_cycle;Max_cycle;Signal;HPM_P1;HPM_P2
2022/03/21 00:00:48;;;;;;;117.30;52.08;;;;;;;1.28;81.91;102941.88;4988897;28;20121;-67
2022/03/21 00:03:16;;;;;;;109.97;52.25;;;;;;;1.33;81.48;102938.41;4984387;28;20046;-64
2022/03/21 00:05:42;;;;;;;114.13;50.60;;;;;;;1.42;80.95;102942.00;4984218;28;20053;-64
2022/03/21 00:08:09;;;;;;;115.53;49.00;;;;;;;1.43;81.20;102932.34;4984285;28;20078;-64
2022/03/21 00:10:35;;;;;;;107.53;49.85;;;;;;;1.43;80.42;102937.63;4984195;28;20473;-64
2022/03/21 00:13:02;;;;;;;111.63;52.22;;;;;;;1.50;80.78;102932.41;4985997;28;20049;-65
2022/03/21 00:15:30;;;;;;;109.95;48.30;;;;;;;1.48;80.40;102930.66;4986358;28;20049;-64
2022/03/21 00:17:56;;;;;;;125.25;54.00;;;;;;;1.45;83.14;102942.00;5003805;28;20502;-64
2022/03/21 00:20:22;;;;;;;124.32;55.50;;;;;;;1.62;83.98;102954.44;5003708;28;20133;-65
2022/03/21 00:22:47;;;;;;;118.65;50.47;;;;;;;1.59;82.88;102944.75;5003974;28;20042;-65
2022/03/21 00:25:13;;;;;;;126.93;55.97;;;;;;;1.76;84.01;102940.50;5003875;28;20084;-64
2022/03/21 00:27:40;;;;;;;120.07;54.50;;;;;;;1.66;83.10;102940.44;5003622;28;20037;-65
2022/03/21 00:30:10;;;;;;;121.15;53.50;;;;;;;1.65;82.59;102942.16;4981480;28;20770;-64
2022/03/21 00:32:37;;;;;;;125.60;53.65;;;;;;;1.51;82.53;102943.81;4981839;28;20035;-64
2022/03/21 00:35:06;;;;;;;120.65;53.50;;;;;;;1.51;82.96;102947.34;4983321;28;20057;-65
2022/03/21 00:37:34;;;;;;;121.57;54.45;;;;;;;1.75;83.06;102957.13;4983632;28;20046;-65
2022/03/21 00:40:00;;;;;;;136.00;59.72;;;;;;;1.87;84.34;102959.00;4983080;28;20104;-65
2022/03/21 00:42:26;;;;;;;119.90;53.95;;;;;;;2.03;83.63;102949.44;4983145;28;20487;-65
2022/03/21 00:44:52;;;;;;;120.60;55.10;;;;;;;2.18;83.11;102956.53;4982784;28;20050;-65
2022/03/21 00:47:18;;;;;;;125.57;56.13;;;;;;;2.20;82.62;102954.78;4983327;28;20665;-65
2022/03/21 00:49:44;;;;;;;120.45;51.28;;;;;;;2.23;83.34;102949.56;4983484;28;20049;-65
2022/03/21 00:52:10;;;;;;;115.47;54.63;;;;;;;2.17;82.89;102953.03;4981893;28;20782;-65
2022/03/21 00:54:35;;;;;;;116.13;50.50;;;;;;;1.97;82.62;102954.69;4982302;28;20040;-64
2022/03/21 00:57:00;;;;;;;112.88;50.33;;;;;;;1.66;82.38;102958.84;4983754;28;20066;-65
2022/03/21 00:59:26;;;;;;;108.43;47.90;;;;;;;1.67;82.33;102957.97;4983921;28;20859;-64
2022/03/21 01:01:51;;;;;;;99.90;46.03;;;;;;;1.58;82.24;102960.53;4983899;28;20049;-65
2022/03/21 01:04:17;;;;;;;108.68;45.90;;;;;;;1.51;83.30;102965.75;4982299;28;20414;-65
2022/03/21 01:06:42;;;;;;;99.90;44.45;;;;;;;1.69;83.71;102961.47;4983834;28;20049;-65
2022/03/21 01:09:09;;;;;;;92.28;42.97;;;;;;;1.76;84.11;102968.56;4984352;28;20049;-65
2022/03/21 01:11:35;;;;;;;97.50;45.35;;;;;;;1.85;84.09;102971.22;4984250;28;20057;-64
2022/03/21 01:14:01;;;;;;;91.80;43.20;;;;;;;2.07;84.32;102978.41;4994738;28;20037;-65
2022/03/21 01:16:26;;;;;;;106.82;45.55;;;;;;;2.05;83.74;102976.63;5002900;28;20045;-65
2022/03/21 01:18:51;;;;;;;106.47;43.72;;;;;;;1.86;83.75;102973.03;5002949;28;20025;-64
2022/03/21 01:21:17;;;;;;;97.35;42.42;;;;;;;1.79;83.42;102972.06;4991401;28;20045;-64
2022/03/21 01:23:42;;;;;;;99.93;44.33;;;;;;;1.56;83.38;102976.28;4983145;28;20502;-64
2022/03/21 01:26:07;;;;;;;87.85;40.50;;;;;;;1.73;83.51;102979.03;4982848;28;20049;-65
2022/03/21 01:28:33;;;;;;;98.95;44.55;;;;;;;1.59;82.83;102976.31;4982846;28;20045;-64
2022/03/21 01:30:58;;;;;;;94.13;43.60;;;;;;;1.50;82.21;102984.09;4983090;28;20045;-64
2022/03/21 01:33:24;;;;;;;94.95;43.00;;;;;;;1.60;83.31;102980.69;4982911;28;20037;-65
2022/03/21 01:35:49;;;;;;;95.97;42.35;;;;;;;1.55;82.89;102988.53;4983081;28;20797;-64
2022/03/21 01:38:15;;;;;;;87.55;43.25;;;;;;;1.69;83.45;102990.41;4983198;28;20073;-64
2022/03/21 01:40:40;;;;;;;99.40;43.97;;;;;;;1.83;83.02;102988.78;4982879;28;20140;-65
2022/03/21 01:43:10;;;;;;;96.03;41.35;;;;;;;1.94;82.27;102989.72;4982719;28;20165;-64
2022/03/21 01:45:36;;;;;;;86.43;41.05;;;;;;;1.76;83.11;102979.97;4982410;28;20074;-64
2022/03/21 01:48:01;;;;;;;87.40;40.55;;;;;;;1.94;83.12;102987.09;4982669;28;20598;-64
2022/03/21 01:50:26;;;;;;;97.05;41.63;;;;;;;1.89;82.92;102987.94;4983341;28;20085;-64
2022/03/21 01:55:43;;;;;;;82.30;39.80;;;;;;;1.65;82.43;102992.13;4982355;28;20039;-64
2022/03/21 01:55:43;;;;;;;89.38;41.75;;;;;;;1.52;83.33;102988.53;4982431;28;20038;-64
2022/03/21 01:58:09;;;;;;;92.72;41.67;;;;;;;1.27;83.19;102987.41;4981920;28;20133;-64
2022/03/21 02:00:34;;;;;;;88.20;40.88;;;;;;;1.07;84.59;102996.84;4989160;28;20065;-64
2022/03/21 02:03:00;;;;;;;92.03;40.15;;;;;;;0.98;83.71;103002.00;4983349;28;20061;-66
2022/03/21 02:05:25;;;;;;;95.82;42.08;;;;;;;0.93;83.46;103001.06;4999991;28;20392;-64
2022/03/21 02:07:51;;;;;;;91.63;40.15;;;;;;;0.89;83.58;102989.63;5002425;28;20049;-64
2022/03/21 02:10:16;;;;;;;86.80;39.35;;;;;;;0.81;83.51;102993.06;5002065;28;20052;-64
2022/03/21 02:12:42;;;;;;;87.57;39.15;;;;;;;0.81;83.65;102998.31;5001365;28;20049;-64
2022/03/21 02:15:08;;;;;;;95.53;41.90;;;;;;;0.78;83.56;102996.50;4982198;28;20570;-64
2022/03/21 02:17:36;;;;;;;98.95;42.55;;;;;;;0.87;83.73;103001.88;4983101;28;20145;-65
2022/03/21 02:20:02;;;;;;;91.63;42.17;;;;;;;0.84;84.01;102995.69;4982280;28;20089;-64
2022/03/21 02:22:33;;;;;;;104.93;43.92;;;;;;;0.93;84.00;102994.06;5002284;28;20133;-64
2022/03/21 02:25:19;;;;;;;106.68;47.63;;;;;;;1.01;84.13;102994.16;5002460;28;20069;-64
2022/03/21 02:27:48;;;;;;;112.30;46.95;;;;;;;0.84;83.90;102993.94;4986634;28;20050;-66
2022/03/21 02:30:14;;;;;;;102.85;45.22;;;;;;;0.70;84.07;102996.44;5002044;28;20113;-64
2022/03/21 02:32:41;;;;;;;111.57;48.25;;;;;;;0.66;85.19;103001.63;5002191;28;20496;-64
2022/03/21 02:35:09;;;;;;;120.07;48.67;;;;;;;0.63;85.03;103010.31;5000698;28;20116;-64
2022/03/21 02:37:35;;;;;;;107.78;44.95;;;;;;;0.55;84.07;103005.84;5001868;28;20794;-64
2022/03/21 02:40:01;;;;;;;96.03;40.95;;;;;;;0.32;83.31;103002.91;5001478;28;20034;-64
2022/03/21 02:42:26;;;;;;;99.07;41.28;;;;;;;0.16;83.54;102997.47;5001509;28;20490;-64
2022/03/21 02:44:52;;;;;;;90.47;40.28;;;;;;;-0.03;83.41;103003.28;5001255;28;20495;-64
2022/03/21 02:47:17;;;;;;;94.95;40.80;;;;;;;0.02;83.66;103006.84;5001222;28;20446;-64
2022/03/21 02:49:43;;;;;;;95.82;43.22;;;;;;;0.09;84.32;102995.59;5001826;28;20030;-64
2022/03/21 02:52:10;;;;;;;104.35;42.80;;;;;;;0.20;84.49;102996.66;5001655;28;20805;-64
2022/03/21 02:54:35;;;;;;;104.53;46.63;;;;;;;0.29;84.26;102982.75;5001491;28;20042;-64
2022/03/21 02:57:01;;;;;;;105.68;46.67;;;;;;;0.33;84.53;102994.19;5001917;28;20515;-64
2022/03/21 02:59:27;;;;;;;110.18;48.05;;;;;;;0.39;84.59;102994.25;4981138;28;20038;-64
2022/03/21 03:01:53;;;;;;;119.78;48.15;;;;;;;0.33;83.25;102994.19;4982587;28;20446;-64
2022/03/21 03:04:23;;;;;;;113.93;47.63;;;;;;;0.15;83.12;103000.94;4983350;28;20142;-64
2022/03/21 03:06:48;;;;;;;92.38;42.95;;;;;;;-0.10;83.98;102990.91;4981841;28;20038;-64
2022/03/21 03:09:14;;;;;;;108.43;45.55;;;;;;;-0.18;84.19;102992.56;4982963;28;20492;-64
2022/03/21 03:11:39;;;;;;;100.90;44.83;;;;;;;-0.20;84.05;103002.13;4982783;28;20046;-64
2022/03/21 03:14:06;;;;;;;102.28;43.85;;;;;;;-0.24;83.96;102992.47;4994434;28;20066;-67
2022/03/21 03:16:31;;;;;;;108.80;46.10;;;;;;;-0.22;83.74;103002.09;5001949;28;20046;-65
2022/03/21 03:18:57;;;;;;;104.13;44.35;;;;;;;-0.34;84.26;103010.66;5004717;28;20128;-69
2022/03/21 03:21:28;;;;;;;120.95;48.03;;;;;;;-0.39;84.72;103007.09;5005608;28;20050;-67
2022/03/21 03:23:56;;;;;;;108.00;46.00;;;;;;;-0.32;83.80;103011.56;5005416;28;20142;-65
2022/03/21 03:26:21;;;;;;;120.03;44.75;;;;;;;-0.42;83.57;103017.50;5005207;28;20508;-65
2022/03/21 03:28:47;;;;;;;197.90;49.83;;;;;;;-0.48;84.60;103016.53;5005220;28;20042;-66
2022/03/21 03:31:14;;;;;;;101.80;43.58;;;;;;;-0.41;84.34;103007.91;5004856;28;20048;-65
2022/03/21 03:33:40;;;;;;;101.55;45.30;;;;;;;-0.36;84.61;103014.97;5004253;28;20046;-66
2022/03/21 03:36:06;;;;;;;107.68;45.72;;;;;;;-0.33;83.88;103016.78;5004289;28;20037;-66
2022/03/21 03:38:31;;;;;;;101.32;44.53;;;;;;;-0.46;84.14;103015.69;5004624;28;20121;-65
2022/03/21 03:40:57;;;;;;;173.43;50.28;;;;;;;-0.66;84.22;103007.47;5004646;28;20050;-67
2022/03/21 03:43:23;;;;;;;96.85;41.70;;;;;;;-0.57;84.38;103012.00;5004719;28;20128;-66
2022/03/21 03:45:52;;;;;;;98.85;43.17;;;;;;;-0.57;84.12;103018.13;5004386;28;20076;-65
2022/03/21 03:48:20;;;;;;;105.07;45.20;;;;;;;-0.53;84.10;103016.44;5005001;28;20042;-66
2022/03/21 03:50:46;;;;;;;101.65;48.30;;;;;;;-0.63;84.45;103015.38;5004499;28;20096;-65
2022/03/21 03:53:11;;;;;;;166.50;49.90;;;;;;;-0.65;84.80;103009.25;5004651;28;20134;-65
2022/03/21 03:55:37;;;;;;;208.40;50.38;;;;;;;-0.67;85.96;103010.06;5004164;28;20042;-67
2022/03/21 03:58:02;;;;;;;320.38;56.53;;;;;;;-0.81;85.74;103005.44;5004096;28;20100;-68
2022/03/21 04:00:28;;;;;;;154.68;44.83;;;;;;;-0.83;85.17;103006.28;5004251;28;20046;-65
2022/03/21 04:05:37;;;;;;;210.85;44.03;;;;;;;-0.82;85.77;102993.22;5004330;28;20052;-65
2022/03/21 04:08:03;;;;;;;183.73;44.38;;;;;;;-0.90;86.34;103005.31;5004867;28;20148;-65
2022/03/21 04:10:28;;;;;;;185.70;46.13;;;;;;;-0.90;85.99;103005.31;5003201;28;20037;-65
2022/03/21 04:12:53;;;;;;;127.60;43.85;;;;;;;-0.96;86.28;103006.91;5004398;28;20076;-65
2022/03/21 04:15:21;;;;;;;206.38;48.35;;;;;;;-0.94;86.60;103000.84;5004029;28;20124;-65
2022/03/21 04:17:47;;;;;;;242.80;47.85;;;;;;;-0.93;85.98;103004.34;5004057;28;20145;-65
2022/03/21 04:20:13;;;;;;;112.47;42.97;;;;;;;-1.02;85.64;103012.91;5001397;28;20125;-65
2022/03/21 04:22:38;;;;;;;76.75;37.53;;;;;;;-0.97;86.11;103018.22;4983953;28;20050;-67
2022/03/21 04:25:06;;;;;;;70.70;37.47;;;;;;;-0.82;86.05;103013.28;4983481;28;20038;-65
2022/03/21 04:27:32;;;;;;;81.40;38.95;;;;;;;-0.81;85.12;103012.44;4983465;28;20038;-64
2022/03/21 04:29:58;;;;;;;90.70;41.42;;;;;;;-0.84;86.18;103015.88;4982905;28;20050;-66
2022/03/21 04:32:24;;;;;;;137.05;49.13;;;;;;;-1.06;85.26;103017.19;4983605;28;20137;-66
2022/03/21 04:34:49;;;;;;;124.95;49.33;;;;;;;-1.07;86.14;103019.78;4983366;28;20053;-66
2022/03/21 04:37:15;;;;;;;122.65;47.65;;;;;;;-1.14;86.64;103012.69;4983917;28;20053;-66
2022/03/21 04:39:40;;;;;;;101.40;42.53;;;;;;;-1.10;86.26;103018.00;5004008;28;20041;-65
2022/03/21 04:42:06;;;;;;;150.90;39.72;;;;;;;-1.03;87.21;103023.34;4982547;28;20124;-66
2022/03/21 04:44:31;;;;;;;145.57;42.10;;;;;;;-1.12;86.88;103022.31;4983036;28;20046;-66
2022/03/21 04:46:56;;;;;;;115.70;40.55;;;;;;;-1.12;86.91;103026.66;4984182;28;20553;-65
2022/03/21 04:49:22;;;;;;;125.32;43.42;;;;;;;-1.13;86.39;103028.41;4984349;28;20038;-65
2022/03/21 04:51:47;;;;;;;128.85;46.58;;;;;;;-1.41;85.96;103029.56;4984173;28;20074;-65
2022/03/21 04:54:12;;;;;;;114.65;49.40;;;;;;;-1.48;85.35;103038.13;5002438;28;20041;-67
2022/03/21 04:56:38;;;;;;;112.47;46.35;;;;;;;-1.50;85.34;103037.22;5001995;28;20667;-65
2022/03/21 04:59:03;;;;;;;100.57;43.55;;;;;;;-1.51;85.16;103035.44;5001814;28;20548;-66
2022/03/21 05:01:29;;;;;;;96.85;43.95;;;;;;;-1.41;84.99;103037.41;5003123;28;20425;-65
2022/03/21 05:03:55;;;;;;;102.97;43.35;;;;;;;-1.48;85.12;103027.66;4982532;28;20091;-66
2022/03/21 05:06:20;;;;;;;97.63;41.67;;;;;;;-1.38;85.08;103034.88;5002638;28;20104;-66
2022/03/21 05:08:46;;;;;;;102.10;43.28;;;;;;;-1.44;84.95;103031.25;5002733;28;20050;-65
2022/03/21 05:11:11;;;;;;;102.63;45.45;;;;;;;-1.62;85.01;103031.72;5000042;28;20037;-66
2022/03/21 05:13:37;;;;;;;166.32;50.60;;;;;;;-1.62;84.97;103040.44;5002342;28;20494;-66
2022/03/21 05:16:05;;;;;;;218.57;47.97;;;;;;;-1.66;85.12;103037.72;5001875;28;20798;-65
2022/03/21 05:18:34;;;;;;;177.55;46.80;;;;;;;-1.74;85.46;103036.69;5002129;28;20548;-65
2022/03/21 05:21:01;;;;;;;175.70;45.90;;;;;;;-1.74;86.04;103039.28;4993441;28;20137;-66
2022/03/21 05:31:38;;;;;;;99.35;44.80;;;;;;;-1.41;84.35;103037.41;5002562;28;20060;-66
2022/03/21 05:36:47;;;;;;;206.38;51.72;;;;;;;-1.77;84.21;103032.25;5002716;28;20204;-66
2022/03/21 05:39:13;;;;;;;158.88;47.65;;;;;;;-1.89;84.88;103034.59;5002320;28;20548;-65
2022/03/21 05:41:39;;;;;;;125.30;46.45;;;;;;;-1.77;84.60;103033.97;5001766;28;20056;-65
2022/03/21 05:44:04;;;;;;;143.02;48.85;;;;;;;-1.67;84.14;103041.19;5002356;28;20141;-66
2022/03/21 05:46:30;;;;;;;136.77;46.30;;;;;;;-1.64;84.70;103043.88;5001997;28;20042;-65
2022/03/21 05:48:59;;;;;;;141.80;46.75;;;;;;;-1.61;84.80;103042.22;5002476;28;20483;-65
2022/03/21 05:51:31;;;;;;;130.02;46.47;;;;;;;-1.48;84.46;103045.09;4984974;28;20141;-66
2022/03/21 05:54:01;;;;;;;128.05;44.17;;;;;;;-1.59;84.91;103043.13;5000754;28;20092;-66
2022/03/21 05:56:27;;;;;;;134.10;44.55;;;;;;;-1.59;85.45;103048.38;5002044;28;20060;-66
2022/03/21 05:58:54;;;;;;;124.13;42.75;;;;;;;-1.41;85.08;103049.59;5000572;28;20045;-65
2022/03/21 06:01:23;;;;;;;144.73;45.90;;;;;;;-1.35;85.36;103041.91;4983651;28;20418;-67
2022/03/21 06:03:53;;;;;;;210.70;47.38;;;;;;;-1.35;85.08;103044.53;5001077;28;20103;-66
2022/03/21 06:06:19;;;;;;;157.48;45.28;;;;;;;-1.38;84.99;103047.94;5000889;28;20041;-66
2022/03/21 06:08:45;;;;;;;119.78;43.53;;;;;;;-1.18;84.49;103052.72;5000771;28;20399;-65
2022/03/21 06:11:12;;;;;;;119.70;40.30;;;;;;;-1.17;83.88;103051.88;5001385;28;20038;-66
2022/03/21 06:13:42;;;;;;;109.03;40.70;;;;;;;-1.13;83.22;103053.69;5000904;28;20033;-65
2022/03/21 06:16:08;;;;;;;106.45;43.67;;;;;;;-0.93;83.19;103048.88;4998260;28;20074;-66
2022/03/21 06:18:35;;;;;;;136.48;42.08;;;;;;;-0.92;82.99;103053.25;5001722;28;20112;-67
2022/03/21 06:21:02;;;;;;;107.68;41.03;;;;;;;-0.86;82.89;103056.84;4995327;28;20053;-66
2022/03/21 06:23:28;;;;;;;100.30;42.08;;;;;;;-0.78;82.60;103059.63;4996906;28;20041;-66
2022/03/21 06:25:55;;;;;;;105.85;40.63;;;;;;;-0.80;81.92;103057.00;4983557;28;20077;-66
2022/03/21 06:28:25;;;;;;;92.22;41.38;;;;;;;-0.59;82.34;103064.38;5001279;28;20100;-66
2022/03/21 06:30:51;;;;;;;91.60;39.65;;;;;;;-0.32;81.79;103065.72;4999987;28;20037;-66
2022/03/21 06:33:25;;;;;;;92.88;40.42;;;;;;;-0.18;81.50;103073.84;5001061;28;20057;-66
2022/03/21 06:35:51;;;;;;;86.63;40.13;;;;;;;-0.31;81.53;103073.59;5000905;28;20133;-66
2022/03/21 06:38:17;;;;;;;85.68;39.63;;;;;;;-0.15;82.15;103074.78;4985671;28;20076;-68
2022/03/21 06:40:43;;;;;;;121.90;44.00;;;;;;;0.15;80.88;103081.34;5000544;28;20140;-66
2022/03/21 06:43:09;;;;;;;155.48;44.95;;;;;;;0.29;83.33;103078.94;5000565;28;20034;-67
2022/03/21 06:45:35;;;;;;;149.90;43.92;;;;;;;0.46;81.35;103074.84;5000259;28;20360;-66
2022/03/21 06:48:00;;;;;;;116.30;38.72;;;;;;;0.55;80.65;103074.06;4983266;28;20816;-66
2022/03/21 06:50:26;;;;;;;129.02;38.55;;;;;;;0.69;80.36;103070.78;5001168;28;20956;-66
2022/03/21 06:52:52;;;;;;;126.32;37.65;;;;;;;0.81;80.12;103080.59;5002129;28;20610;-66
2022/03/21 06:55:24;;;;;;;;;;;;;;;0.56;80.01;103083.75;5005697;28;20050;-65
2022/03/21 06:57:49;;;;;;;99.88;35.90;;;;;;;0.81;79.18;103083.22;5005050;28;20274;-65
2022/03/21 07:00:16;;;;;;;143.90;35.60;;;;;;;1.25;77.84;103089.00;5005000;28;20421;-66
2022/03/21 07:02:43;;;;;;;93.60;34.53;;;;;;;1.26;78.22;103089.91;4991809;28;20855;-66
2022/03/21 07:05:08;;;;;;;73.28;34.53;;;;;;;1.38;77.93;103090.03;4985190;28;20046;-65
2022/03/21 07:07:35;;;;;;;85.28;32.33;;;;;;;1.76;76.81;103093.06;4967611;28;20054;-66
2022/03/21 07:10:01;;;;;;;123.18;33.28;;;;;;;2.11;75.53;103086.31;4985926;28;20054;-66
2022/03/21 07:12:27;;;;;;;81.85;29.25;;;;;;;2.14;75.63;103095.13;4984867;28;20495;-66
2022/03/21 07:14:52;;;;;;;85.20;31.60;;;;;;;2.30;75.49;103094.34;4985599;28;20045;-67
2022/03/21 07:17:21;;;;;;;87.47;30.00;;;;;;;2.48;74.70;103095.38;4984708;28;20713;-63
2022/03/21 07:19:47;;;;;;;65.90;28.27;;;;;;;2.76;73.79;103092.03;4985306;28;20104;-66
2022/03/21 07:22:13;;;;;;;52.00;28.20;;;;;;;3.16;73.18;103094.81;4986506;28;20046;-65
2022/03/21 07:24:38;;;;;;;48.08;26.10;;;;;;;3.64;72.66;103103.75;4967613;28;20070;-63
2022/03/21 07:27:04;;;;;;;49.67;27.90;;;;;;;3.93;70.90;103084.47;5002750;28;20034;-65
2022/03/21 07:29:29;;;;;;;46.20;25.88;;;;;;;3.98;70.14;103096.78;5003969;28;20045;-66
2022/03/21 07:31:56;;;;;;;46.28;26.17;;;;;;;4.53;69.78;103096.72;5003930;28;20124;-66
2022/03/21 07:34:22;;;;;;;40.38;25.80;;;;;;;4.86;69.15;103085.16;5004195;28;20037;-66
2022/03/21 07:36:49;;;;;;;44.72;26.30;;;;;;;4.77;69.69;103087.88;5004192;28;20045;-66
2022/03/21 07:39:14;;;;;;;44.47;26.58;;;;;;;4.80;71.15;103094.91;5005202;28;20084;-68
2022/03/21 07:41:39;;;;;;;47.42;26.83;;;;;;;5.46;70.05;103104.28;5004440;28;20041;-64
2022/03/21 07:44:05;;;;;;;51.03;29.05;;;;;;;5.97;68.69;103102.25;5003957;28;20122;-64
2022/03/21 07:49:15;;;;;;;54.58;27.98;;;;;;;6.48;68.63;103100.03;5004170;28;20053;-66
2022/03/21 07:51:43;;;;;;;51.95;27.98;;;;;;;7.05;68.01;103103.81;5003373;28;20041;-65
2022/03/21 07:54:09;;;;;;;48.75;28.60;;;;;;;7.11;68.27;103095.78;5002769;28;20633;-65
2022/03/21 07:56:34;;;;;;;48.28;27.02;;;;;;;7.00;69.57;103090.59;5002177;28;20046;-65
2022/03/21 07:59:01;;;;;;;48.72;28.60;;;;;;;7.89;66.13;103092.88;5001102;28;20049;-65
2022/03/21 08:01:29;;;;;;;41.83;26.00;;;;;;;7.97;65.72;103098.94;4984121;28;20130;-65
2022/03/21 08:03:56;;;;;;;41.92;26.70;;;;;;;7.71;67.25;103101.13;4966279;28;20561;-65
2022/03/21 08:06:21;;;;;;;44.35;26.85;;;;;;;7.88;68.20;103098.19;4983997;28;20050;-65
2022/03/21 08:08:49;;;;;;;44.92;25.88;;;;;;;8.54;65.28;103098.00;4984239;28;20046;-65
2022/03/21 08:11:15;;;;;;;47.67;27.48;;;;;;;8.75;64.95;103096.72;4984300;28;20046;-65
2022/03/21 08:13:40;;;;;;;40.80;24.75;;;;;;;9.00;64.70;103102.44;4992928;28;20056;-65
2022/03/21 08:16:06;;;;;;;45.00;26.95;;;;;;;8.78;65.56;103102.84;5003637;28;20064;-65
2022/03/21 08:18:31;;;;;;;43.72;27.10;;;;;;;8.43;67.06;103098.19;5003914;28;20045;-66
2022/03/21 08:20:57;;;;;;;47.00;26.33;;;;;;;8.74;66.74;103102.94;5000387;28;20045;-65
2022/03/21 08:23:22;;;;;;;48.42;26.88;;;;;;;8.68;66.95;103108.38;5004244;28;20030;-67
2022/03/21 08:25:48;;;;;;;46.33;27.85;;;;;;;9.05;66.50;103108.53;4985992;28;20037;-65
2022/03/21 08:28:14;;;;;;;48.22;27.25;;;;;;;8.75;66.80;103104.69;4985495;28;20034;-65
2022/03/21 08:30:40;;;;;;;45.40;26.98;;;;;;;9.10;67.12;103104.00;4988729;28;20042;-65
2022/03/21 08:33:08;;;;;;;51.67;27.98;;;;;;;9.05;67.63;103108.53;5001678;28;20476;-65
2022/03/21 08:35:36;;;;;;;53.90;27.35;;;;;;;9.10;67.68;103105.78;5000209;28;20037;-65
2022/03/21 08:38:02;;;;;;;46.67;26.75;;;;;;;9.06;67.77;103102.28;5003487;28;20704;-65
2022/03/21 08:40:28;;;;;;;51.95;27.52;;;;;;;8.98;68.10;103112.22;5003066;28;20053;-65
2022/03/21 08:42:55;;;;;;;48.75;27.67;;;;;;;9.41;66.57;103108.66;5002981;28;20041;-65
2022/03/21 08:45:21;;;;;;;47.67;27.45;;;;;;;9.46;66.98;103104.09;5002162;28;20417;-65
2022/03/21 08:47:47;;;;;;;49.63;28.17;;;;;;;9.88;66.37;103104.00;5001827;28;20053;-66
2022/03/21 08:50:13;;;;;;;47.88;26.85;;;;;;;9.48;65.85;103102.28;5001661;28;20136;-66
2022/03/21 08:52:39;;;;;;;53.10;28.63;;;;;;;9.37;65.98;103104.31;5002557;28;20383;-65
2022/03/21 08:55:06;;;;;;;49.15;27.20;;;;;;;9.37;67.43;103093.66;5002807;28;20048;-66
2022/03/21 08:57:31;;;;;;;50.17;27.40;;;;;;;9.70;66.11;103097.34;5002735;28;20044;-65
2022/03/21 08:59:57;;;;;;;46.22;25.88;;;;;;;10.06;64.18;103100.91;4992462;28;20043;-66
2022/03/21 09:02:22;;;;;;;45.85;26.08;;;;;;;10.14;64.50;103098.94;4983464;28;20392;-65
2022/03/21 09:04:48;;;;;;;52.80;27.88;;;;;;;10.12;64.92;103092.75;4983508;28;20057;-65
2022/03/21 09:07:13;;;;;;;47.38;26.30;;;;;;;10.42;64.38;103090.25;4983244;28;20042;-67
2022/03/21 09:09:40;;;;;;;52.63;28.65;;;;;;;10.70;63.60;103096.59;4983367;28;20053;-66
2022/03/21 09:12:07;;;;;;;48.95;26.90;;;;;;;10.72;62.91;103094.75;4983152;28;20399;-67
2022/03/21 09:14:33;;;;;;;47.45;26.67;;;;;;;10.81;62.39;103091.81;4998262;28;20046;-66
2022/03/21 09:16:59;;;;;;;45.53;26.42;;;;;;;10.75;64.71;103092.00;5001908;28;20503;-70
2022/03/21 09:19:24;;;;;;;45.67;25.60;;;;;;;10.56;64.43;103091.63;5002685;28;20411;-66
2022/03/21 09:21:51;;;;;;;50.13;26.80;;;;;;;10.60;63.60;103092.44;5003505;28;20041;-65
2022/03/21 09:24:16;;;;;;;51.15;28.50;;;;;;;10.71;63.93;103090.31;5002673;28;20061;-65
2022/03/21 09:26:42;;;;;;;46.55;26.10;;;;;;;11.25;62.33;103083.44;5002784;28;20065;-68
2022/03/21 09:29:09;;;;;;;48.67;26.98;;;;;;;11.39;61.32;103087.41;5002771;28;20045;-66
2022/03/21 09:31:41;;;;;;;47.17;27.02;;;;;;;11.01;62.92;103079.69;4985358;28;20188;-67
2022/03/21 09:34:12;;;;;;;57.00;28.58;;;;;;;11.05;62.61;103082.25;5002368;28;20057;-66
2022/03/21 09:36:38;;;;;;;46.83;25.45;;;;;;;11.12;62.54;103081.13;5002022;28;20589;-67
2022/03/21 09:39:05;;;;;;;44.10;25.33;;;;;;;11.71;61.18;103084.69;5002577;28;20675;-66
2022/03/21 09:41:32;;;;;;;47.72;26.90;;;;;;;11.40;62.28;103082.97;5002317;28;20076;-67
2022/03/21 09:44:03;;;;;;;48.40;26.63;;;;;;;11.43;63.12;103080.19;5000960;28;20049;-67
2022/03/21 09:46:29;;;;;;;51.97;26.77;;;;;;;11.51;61.29;103078.16;5002318;28;20589;-68
2022/03/21 09:48:56;;;;;;;47.80;26.20;;;;;;;12.01;60.13;103080.16;4984520;28;20081;-66
2022/03/21 09:51:29;;;;;;;54.45;27.85;;;;;;;11.77;61.84;103077.31;5000407;28;20483;-67
2022/03/21 09:53:56;;;;;;;49.30;27.92;;;;;;;11.83;62.02;103074.47;5002745;28;20116;-67
2022/03/21 09:56:23;;;;;;;47.72;28.05;;;;;;;12.47;60.81;103070.53;5002344;28;20046;-67
2022/03/21 09:58:48;;;;;;;47.55;28.38;;;;;;;12.18;59.68;103067.94;5002263;28;20040;-66
2022/03/21 10:01:16;;;;;;;43.20;25.10;;;;;;;12.16;60.01;103069.81;5002244;28;20038;-68
2022/03/21 10:03:42;;;;;;;57.58;28.02;;;;;;;12.10;60.34;103070.03;5002361;28;20034;-67
2022/03/21 10:06:28;;;;;;;49.85;27.95;;;;;;;12.51;59.75;103061.50;5001953;28;20145;-66
2022/03/21 10:09:11;;;;;;;46.35;26.88;;;;;;;12.34;59.40;103062.94;5001538;28;20045;-67
2022/03/21 10:12:08;;;;;;;50.65;26.83;;;;;;;12.58;57.76;103063.88;4997269;28;20049;-66
2022/03/21 10:14:39;;;;;;;49.60;24.88;;;;;;;12.99;53.90;103068.63;4984227;28;20089;-66
2022/03/21 10:17:08;;;;;;;43.92;22.67;;;;;;;13.02;53.23;103065.84;5001565;28;20057;-66
2022/03/21 10:19:43;;;;;;;47.13;24.17;;;;;;;13.20;55.34;103065.13;5001482;28;20089;-68
2022/03/21 10:22:11;;;;;;;42.17;22.50;;;;;;;13.46;52.42;103064.16;4983470;28;20049;-67
2022/03/21 10:24:39;;;;;;;40.70;22.55;;;;;;;13.38;50.74;103063.56;5000562;28;20516;-67
2022/03/21 10:27:06;;;;;;;38.83;22.50;;;;;;;13.45;50.74;103063.28;4995591;28;20077;-67
2022/03/21 10:29:34;;;;;;;43.58;22.13;;;;;;;13.52;50.47;103060.34;5001489;28;20049;-66
2022/03/21 10:31:59;;;;;;;42.60;22.15;;;;;;;13.56;52.21;103060.16;5001034;28;20042;-66
2022/03/21 10:34:34;;;;;;;44.60;22.60;;;;;;;13.92;49.87;103055.09;5001492;28;20052;-66
2022/03/21 10:37:03;;;;;;;44.00;22.65;;;;;;;13.88;49.56;103066.88;5001588;28;20038;-67
2022/03/21 10:39:31;;;;;;;42.50;21.58;;;;;;;13.82;51.83;103061.78;5001439;28;20128;-68
2022/03/21 10:42:02;;;;;;;42.17;22.00;;;;;;;13.94;50.22;103055.03;5001234;28;20038;-67
2022/03/21 10:44:28;;;;;;;51.42;22.63;;;;;;;14.19;49.03;103054.84;4982968;28;20065;-66
2022/03/21 10:47:03;;;;;;;42.78;22.80;;;;;;;14.28;50.54;103048.22;4983524;28;20038;-67
2022/03/21 10:49:43;;;;;;;42.67;24.27;;;;;;;14.54;49.93;103045.28;4999508;28;20056;-65
2022/03/21 10:52:14;;;;;;;44.28;22.73;;;;;;;14.46;48.06;103048.28;5001030;28;20046;-67
2022/03/21 10:54:50;;;;;;;41.53;22.58;;;;;;;14.63;49.28;103044.00;5001505;28;20402;-66
2022/03/21 10:57:36;;;;;;;45.72;23.38;;;;;;;14.77;48.74;103039.75;5000672;28;20050;-66
2022/03/21 11:00:20;;;;;;;42.60;22.48;;;;;;;14.90;46.79;103044.53;4999505;28;20069;-67
2022/03/21 11:02:51;;;;;;;43.78;23.05;;;;;;;14.80;48.17;103038.72;5000785;28;20406;-66
2022/03/21 11:05:17;;;;;;;52.03;24.27;;;;;;;14.88;48.97;103031.19;4985053;28;20046;-66
2022/03/21 11:07:45;;;;;;;47.13;24.77;;;;;;;14.58;48.44;103036.16;4981432;28;20686;-67
2022/03/21 11:10:11;;;;;;;44.17;23.50;;;;;;;14.24;48.00;103039.41;4981484;28;20065;-65
2022/03/21 11:12:38;;;;;;;50.88;22.95;;;;;;;14.11;48.25;103038.22;4981185;28;20129;-66
2022/03/21 11:15:05;;;;;;;38.40;23.23;;;;;;;14.31;49.02;103043.59;4981462;28;20042;-66
2022/03/21 11:17:32;;;;;;;44.33;23.02;;;;;;;14.45;47.92;103033.09;4981263;28;20053;-66
2022/03/21 11:19:59;;;;;;;50.90;24.05;;;;;;;14.63;47.55;103033.25;4981014;28;21010;-67
2022/03/21 11:22:24;;;;;;;42.15;23.20;;;;;;;15.09;50.44;103031.13;5000713;28;20081;-66
2022/03/21 11:24:50;;;;;;;45.45;23.02;;;;;;;15.13;48.82;103038.97;5000527;28;20046;-67